createdAt,value
2022-08-17T00:01:51.364Z,3.20
2022-08-17T00:04:20.107Z,3.27
2022-08-17T00:06:49.088Z,3.27
2022-08-17T00:09:18.808Z,3.10
2022-08-17T00:12:42.249Z,4.10
2022-08-17T00:14:36.334Z,3.90
2022-08-17T00:17:04.715Z,6.50
2022-08-17T00:19:32.920Z,3.53
2022-08-17T00:22:33.171Z,2.83
2022-08-17T00:24:50.558Z,5.27
2022-08-17T00:27:18.272Z,3.90
2022-08-17T00:29:46.155Z,3.43
2022-08-17T00:33:15.480Z,5.20
2022-08-17T00:35:04.605Z,3.70
2022-08-17T00:37:31.917Z,3.33
2022-08-17T00:39:59.324Z,3.13
2022-08-17T00:42:30.958Z,3.47
2022-08-17T00:44:59.129Z,3.37
2022-08-17T00:47:26.853Z,5.40
2022-08-17T00:49:54.180Z,5.37
2022-08-17T00:52:23.323Z,4.60
2022-08-17T00:54:52.569Z,4.73
2022-08-17T00:57:22.102Z,4.33
2022-08-17T01:00:02.550Z,4.47
2022-08-17T01:02:40.481Z,3.87
2022-08-17T01:05:13.232Z,3.07
2022-08-17T01:07:40.843Z,4.07
2022-08-17T01:10:57.591Z,7.20
2022-08-17T01:12:56.912Z,3.97
2022-08-17T01:15:24.279Z,5.77
2022-08-17T01:17:51.679Z,4.07
2022-08-17T01:20:19.156Z,3.27
2022-08-17T01:22:46.542Z,4.47
2022-08-17T01:25:14.616Z,4.03
2022-08-17T01:27:42.304Z,4.83
2022-08-17T01:30:58.439Z,3.73
2022-08-17T01:32:59.008Z,5.80
2022-08-17T01:35:26.474Z,5.60
2022-08-17T01:37:53.921Z,4.33
2022-08-17T01:40:39.098Z,5.00
2022-08-17T01:43:11.970Z,5.27
2022-08-17T01:45:47.011Z,3.00
2022-08-17T01:48:14.635Z,4.13
2022-08-17T01:50:43.516Z,3.60
2022-08-17T01:53:22.682Z,3.97
2022-08-17T01:55:52.082Z,4.70
2022-08-17T01:58:19.886Z,4.37
2022-08-17T02:01:00.745Z,3.10
2022-08-17T02:03:29.857Z,3.50
2022-08-17T02:05:57.544Z,3.47
2022-08-17T02:08:37.162Z,5.67
2022-08-17T02:11:11.633Z,3.40
2022-08-17T02:13:39.280Z,3.37
2022-08-17T02:16:06.813Z,4.73
2022-08-17T02:18:34.261Z,3.00
2022-08-17T02:21:01.660Z,3.93
2022-08-17T02:23:31.190Z,3.80
2022-08-17T02:25:59.605Z,3.80
2022-08-17T02:28:28.417Z,3.17
2022-08-17T02:31:01.048Z,4.40
2022-08-17T02:33:43.100Z,3.63
2022-08-17T02:36:12.008Z,4.20
2022-08-17T02:38:40.123Z,4.27
2022-08-17T02:41:07.594Z,4.80
2022-08-17T02:43:35.306Z,4.17
2022-08-17T02:46:02.647Z,4.30
2022-08-17T02:48:31.358Z,3.50
2022-08-17T02:50:59.720Z,3.70
2022-08-17T02:53:27.206Z,3.03
2022-08-17T02:55:54.557Z,3.50
2022-08-17T02:58:34.732Z,3.00
2022-08-17T03:01:03.348Z,3.10
2022-08-17T03:03:30.788Z,3.47
2022-08-17T03:05:58.093Z,3.27
2022-08-17T03:08:25.630Z,3.23
2022-08-17T03:10:53.072Z,3.07
2022-08-17T03:13:20.765Z,3.23
2022-08-17T03:15:48.825Z,3.20
2022-08-17T03:18:24.190Z,3.10
2022-08-17T03:20:52.843Z,3.40
2022-08-17T03:23:21.078Z,3.10
2022-08-17T03:25:52.828Z,3.00
2022-08-17T03:28:20.868Z,3.07
2022-08-17T03:30:48.183Z,3.07
2022-08-17T03:33:17.028Z,3.07
2022-08-17T03:35:44.703Z,3.10
2022-08-17T03:38:15.007Z,2.67
2022-08-17T03:40:58.204Z,2.77
2022-08-17T03:43:28.423Z,3.40
2022-08-17T03:46:28.310Z,2.23
2022-08-17T03:49:20.511Z,2.60
2022-08-17T03:52:06.404Z,2.73
2022-08-17T03:54:52.521Z,2.73
2022-08-17T03:57:19.880Z,3.27
2022-08-17T03:59:47.688Z,2.53
2022-08-17T04:02:25.327Z,2.93
2022-08-17T04:04:53.849Z,3.13
2022-08-17T04:07:22.709Z,3.30
2022-08-17T04:09:50.197Z,4.23
2022-08-17T04:12:18.538Z,3.10
2022-08-17T04:14:53.481Z,3.37
2022-08-17T04:17:22.739Z,3.90
2022-08-17T04:19:50.079Z,2.90
2022-08-17T04:22:32.068Z,2.80
2022-08-17T04:25:06.652Z,3.70
2022-08-17T04:27:34.042Z,3.27
2022-08-17T04:30:01.679Z,3.10
2022-08-17T04:33:04.150Z,2.63
2022-08-17T04:35:20.633Z,2.30
2022-08-17T04:37:48.004Z,2.90
2022-08-17T04:40:34.308Z,2.90
2022-08-17T04:43:02.768Z,2.80
2022-08-17T04:45:32.357Z,3.20
2022-08-17T04:48:00.461Z,4.20
2022-08-17T04:50:27.920Z,3.53
2022-08-17T04:52:57.107Z,4.47
2022-08-17T04:55:24.672Z,3.20
2022-08-17T04:57:51.976Z,3.70
2022-08-17T05:00:19.324Z,4.23
2022-08-17T05:02:49.890Z,4.10
2022-08-17T05:05:22.076Z,3.47
2022-08-17T05:07:52.471Z,3.50
2022-08-17T05:10:20.134Z,4.33
2022-08-17T05:12:47.511Z,4.47
2022-08-17T05:15:16.312Z,4.30
2022-08-17T05:17:44.404Z,4.87
2022-08-17T05:20:11.930Z,4.97
2022-08-17T05:22:49.311Z,4.67
2022-08-17T05:25:18.794Z,5.03
2022-08-17T05:27:53.202Z,3.87
2022-08-17T05:30:20.984Z,5.27
2022-08-17T05:32:58.931Z,4.33
2022-08-17T05:35:27.178Z,4.57
2022-08-17T05:37:54.733Z,5.13
2022-08-17T05:40:25.856Z,3.63
2022-08-17T05:43:03.882Z,3.33
2022-08-17T05:45:55.212Z,5.00
2022-08-17T05:48:18.991Z,3.20
2022-08-17T05:50:54.980Z,3.77
2022-08-17T05:53:25.323Z,3.47
2022-08-17T05:56:29.822Z,3.40
2022-08-17T05:59:07.124Z,3.63
2022-08-17T06:01:39.751Z,3.67
2022-08-17T06:04:16.959Z,3.07
2022-08-17T06:06:48.889Z,3.70
2022-08-17T06:09:27.605Z,2.50
2022-08-17T06:12:01.282Z,4.10
2022-08-17T06:14:52.248Z,2.47
2022-08-17T06:17:21.982Z,3.47
2022-08-17T06:19:54.625Z,3.77
2022-08-17T06:22:24.341Z,3.20
2022-08-17T06:24:56.743Z,3.40
2022-08-17T06:27:27.175Z,2.97
2022-08-17T06:29:58.992Z,4.77
2022-08-17T06:32:26.421Z,3.40
2022-08-17T06:34:54.295Z,3.27
2022-08-17T06:37:24.427Z,4.93
2022-08-17T06:39:51.827Z,4.33
2022-08-17T06:42:54.099Z,3.50
2022-08-17T06:45:25.791Z,3.20
2022-08-17T06:48:10.646Z,4.40
2022-08-17T06:50:42.402Z,3.03
2022-08-17T06:53:18.294Z,4.63
2022-08-17T06:55:47.955Z,3.83
2022-08-17T06:58:16.885Z,3.60
2022-08-17T07:00:47.164Z,3.03
2022-08-17T07:03:27.118Z,2.97
2022-08-17T07:05:55.540Z,3.70
2022-08-17T07:08:35.581Z,3.27
2022-08-17T07:11:04.739Z,3.60
2022-08-17T07:13:51.947Z,3.53
2022-08-17T07:16:29.117Z,2.90
2022-08-17T07:18:57.424Z,2.97
2022-08-17T07:21:48.162Z,3.20
2022-08-17T07:24:29.715Z,2.97
2022-08-17T07:27:05.206Z,3.43
2022-08-17T07:29:34.497Z,2.53
2022-08-17T07:32:01.804Z,2.93
2022-08-17T07:34:29.203Z,2.23
2022-08-17T07:37:05.300Z,2.53
2022-08-17T07:39:32.729Z,2.70
2022-08-17T07:42:03.545Z,2.50
2022-08-17T07:44:30.869Z,2.80
2022-08-17T07:47:16.850Z,2.80
2022-08-17T07:49:48.889Z,2.70
2022-08-17T07:52:50.716Z,2.80
2022-08-17T07:55:27.060Z,2.30
2022-08-17T07:57:58.918Z,2.40
2022-08-17T08:00:32.229Z,2.37
2022-08-17T08:03:02.232Z,2.13
2022-08-17T08:05:49.879Z,2.20
2022-08-17T08:08:38.188Z,2.43
2022-08-17T08:11:15.651Z,2.30
2022-08-17T08:13:45.669Z,1.97
2022-08-17T08:16:15.627Z,2.30
2022-08-17T08:18:55.915Z,2.90
2022-08-17T08:21:43.277Z,2.17
2022-08-17T08:24:13.415Z,2.10
2022-08-17T08:26:45.074Z,2.10
2022-08-17T08:29:12.534Z,2.17
2022-08-17T08:31:58.261Z,2.43
2022-08-17T08:34:58.622Z,2.33
2022-08-17T08:37:40.507Z,2.23
2022-08-17T08:40:29.853Z,2.42
2022-08-17T08:43:03.911Z,2.50
2022-08-17T08:45:51.512Z,1.90
2022-08-17T08:48:52.910Z,2.37
2022-08-17T08:51:27.721Z,2.33
2022-08-17T08:53:55.398Z,2.00
2022-08-17T08:56:37.626Z,2.23
2022-08-17T08:59:20.885Z,2.10
2022-08-17T09:02:03.645Z,2.00
2022-08-17T09:04:37.273Z,2.17
2022-08-17T09:07:23.494Z,1.97
2022-08-17T09:10:13.890Z,2.00
2022-08-17T09:12:41.601Z,2.00
2022-08-17T09:15:21.188Z,1.80
2022-08-17T09:20:59.586Z,2.10
2022-08-17T09:23:32.425Z,2.30
2022-08-17T09:26:03.666Z,2.13
2022-08-17T09:28:33.673Z,1.80
2022-08-17T09:31:03.519Z,2.00
2022-08-17T09:33:32.637Z,2.10
2022-08-17T09:36:03.061Z,1.80
2022-08-17T09:38:33.110Z,2.13
2022-08-17T09:41:05.360Z,1.77
2022-08-17T09:43:45.610Z,2.10
2022-08-17T09:46:22.505Z,1.80
2022-08-17T09:48:55.272Z,2.00
2022-08-17T09:51:31.033Z,1.70
2022-08-17T09:54:14.799Z,1.93
2022-08-17T09:57:28.085Z,2.17
2022-08-17T09:59:49.252Z,2.17
2022-08-17T10:02:35.429Z,2.00
2022-08-17T10:05:06.747Z,1.50
2022-08-17T10:07:55.957Z,1.90
2022-08-17T10:10:29.667Z,1.83
2022-08-17T10:13:15.090Z,2.40
2022-08-17T10:15:46.838Z,2.43
2022-08-17T10:18:23.291Z,2.13
2022-08-17T10:21:16.123Z,2.30
2022-08-17T10:24:03.662Z,2.10
2022-08-17T10:26:46.217Z,2.10
2022-08-17T10:29:23.116Z,2.20
2022-08-17T10:31:52.815Z,1.60
2022-08-17T10:34:30.339Z,1.67
2022-08-17T10:37:25.167Z,2.27
2022-08-17T10:39:57.468Z,2.20
2022-08-17T10:42:32.850Z,2.07
2022-08-17T10:45:05.174Z,2.67
2022-08-17T10:47:55.365Z,2.33
2022-08-17T10:50:44.929Z,2.40
2022-08-17T10:53:32.253Z,3.30
2022-08-17T10:56:14.686Z,3.27
2022-08-17T10:58:49.527Z,3.60
2022-08-17T11:01:17.971Z,1.80
2022-08-17T11:03:54.738Z,2.83
2022-08-17T11:06:44.165Z,2.60
2022-08-17T11:09:20.180Z,2.50
2022-08-17T11:11:58.880Z,2.07
2022-08-17T11:14:26.153Z,2.67
2022-08-17T11:17:11.355Z,2.63
2022-08-17T11:19:39.097Z,1.63
2022-08-17T11:22:21.775Z,2.27
2022-08-17T11:24:51.401Z,1.97
2022-08-17T11:27:25.364Z,2.10
2022-08-17T11:30:04.927Z,2.40
2022-08-17T11:32:37.274Z,2.77
2022-08-17T11:35:22.757Z,1.97
2022-08-17T11:37:54.683Z,2.63
2022-08-17T11:40:22.028Z,2.17
2022-08-17T11:43:00.539Z,2.83
2022-08-17T11:45:32.302Z,2.33
2022-08-17T11:48:38.109Z,3.13
2022-08-17T11:51:28.336Z,2.07
2022-08-17T11:54:14.747Z,1.97
2022-08-17T11:56:47.500Z,2.77
2022-08-17T11:59:33.223Z,3.67
2022-08-17T12:02:01.386Z,2.20
2022-08-17T12:04:30.498Z,3.30
2022-08-17T12:07:09.108Z,2.50
2022-08-17T12:09:39.806Z,1.87
2022-08-17T12:12:36.325Z,3.27
2022-08-17T12:15:11.806Z,3.07
2022-08-17T12:17:42.935Z,3.40
2022-08-17T12:20:27.796Z,2.93
2022-08-17T12:23:04.380Z,1.97
2022-08-17T12:25:36.323Z,3.20
2022-08-17T12:28:06.839Z,2.77
2022-08-17T12:30:35.877Z,2.73
2022-08-17T12:33:03.370Z,2.20
2022-08-17T12:35:34.463Z,2.40
2022-08-17T12:38:02.518Z,3.30
2022-08-17T12:40:31.671Z,2.80
2022-08-17T12:43:03.946Z,2.40
2022-08-17T12:45:32.731Z,2.17
2022-08-17T12:48:04.132Z,2.60
2022-08-17T12:50:32.190Z,3.17
2022-08-17T12:53:02.314Z,2.63
2022-08-17T12:55:33.739Z,2.60
2022-08-17T12:58:01.978Z,2.77
2022-08-17T13:00:31.813Z,2.63
2022-08-17T13:03:02.372Z,3.63
2022-08-17T13:05:34.758Z,2.90
2022-08-17T13:08:04.522Z,3.77
2022-08-17T13:10:37.754Z,3.33
2022-08-17T13:13:17.635Z,3.20
2022-08-17T13:15:53.364Z,3.30
2022-08-17T13:18:32.880Z,2.40
2022-08-17T13:21:00.997Z,4.87
2022-08-17T13:23:32.207Z,3.20
2022-08-17T13:26:09.360Z,3.67
2022-08-17T13:28:37.438Z,3.37
2022-08-17T13:31:37.476Z,3.80
2022-08-17T13:34:33.305Z,3.27
2022-08-17T13:37:19.768Z,4.37
2022-08-17T13:39:50.548Z,2.87
2022-08-17T13:42:34.977Z,3.30
2022-08-17T13:45:35.193Z,2.57
2022-08-17T13:48:11.943Z,3.67
2022-08-17T13:50:50.446Z,3.60
2022-08-17T13:53:17.745Z,4.20
2022-08-17T13:55:49.663Z,3.80
2022-08-17T13:58:20.584Z,3.33
2022-08-17T14:00:48.269Z,3.37
2022-08-17T14:03:15.976Z,3.73
2022-08-17T14:05:43.518Z,2.77
2022-08-17T14:08:12.198Z,2.77
2022-08-17T14:10:39.595Z,3.70
2022-08-17T14:13:07.877Z,3.40
2022-08-17T14:15:55.173Z,3.17
2022-08-17T14:18:35.657Z,3.90
2022-08-17T14:21:10.176Z,3.57
2022-08-17T14:23:37.791Z,2.90
2022-08-17T14:26:05.343Z,2.80
2022-08-17T14:28:33.017Z,3.30
2022-08-17T14:31:03.733Z,3.53
2022-08-17T14:33:31.075Z,3.40
2022-08-17T14:35:58.691Z,3.47
2022-08-17T14:38:26.161Z,2.67
2022-08-17T14:40:54.163Z,2.60
2022-08-17T14:43:21.575Z,3.30
2022-08-17T14:45:48.888Z,2.60
2022-08-17T14:48:16.191Z,3.07
2022-08-17T14:50:44.250Z,2.77
2022-08-17T14:53:12.843Z,3.03
2022-08-17T14:55:40.611Z,3.40
2022-08-17T14:58:08.993Z,3.30
2022-08-17T15:00:36.847Z,3.17
2022-08-17T15:03:04.314Z,3.03
2022-08-17T15:05:34.262Z,3.13
2022-08-17T15:08:02.052Z,2.63
2022-08-17T15:10:30.080Z,3.17
2022-08-17T15:12:57.808Z,2.40
2022-08-17T15:15:25.150Z,3.07
2022-08-17T15:17:52.537Z,3.30
2022-08-17T15:20:21.531Z,2.33
2022-08-17T15:22:49.840Z,3.33
2022-08-17T15:25:18.660Z,2.80
2022-08-17T15:27:46.151Z,3.70
2022-08-17T15:30:13.752Z,2.87
2022-08-17T15:32:51.489Z,3.00
2022-08-17T15:35:28.351Z,3.20
2022-08-17T15:38:06.313Z,2.80
2022-08-17T15:40:38.491Z,3.20
2022-08-17T15:43:11.313Z,2.67
2022-08-17T15:45:39.172Z,2.70
2022-08-17T15:48:06.899Z,2.77
2022-08-17T15:50:34.233Z,3.07
2022-08-17T15:53:02.297Z,2.83
2022-08-17T15:55:30.909Z,2.87
2022-08-17T15:57:58.522Z,2.40
2022-08-17T16:00:28.304Z,2.03
2022-08-17T16:03:45.508Z,2.40
2022-08-17T16:05:43.916Z,2.93
2022-08-17T16:08:11.424Z,3.63
2022-08-17T16:10:39.095Z,3.07
2022-08-17T16:13:17.694Z,2.63
2022-08-17T16:15:47.797Z,3.00
2022-08-17T16:18:25.454Z,3.10
2022-08-17T16:20:53.474Z,2.53
2022-08-17T16:23:20.766Z,2.87
2022-08-17T16:25:53.433Z,3.13
2022-08-17T16:28:21.823Z,2.87
2022-08-17T16:30:49.337Z,2.33
2022-08-17T16:33:16.941Z,2.70
2022-08-17T16:35:44.283Z,2.50
2022-08-17T16:38:12.490Z,2.73
2022-08-17T16:40:42.242Z,2.40
2022-08-17T16:43:10.616Z,2.37
2022-08-17T16:45:39.815Z,3.10
2022-08-17T16:48:07.812Z,2.10
2022-08-17T16:50:35.493Z,2.33
2022-08-17T16:53:07.213Z,2.60
2022-08-17T16:55:35.747Z,2.67
2022-08-17T16:58:04.756Z,3.03
2022-08-17T17:00:33.656Z,3.40
2022-08-17T17:03:19.686Z,3.70
2022-08-17T17:05:48.454Z,2.50
2022-08-17T17:08:30.469Z,3.00
2022-08-17T17:10:59.468Z,2.53
2022-08-17T17:13:32.930Z,2.83
2022-08-17T17:16:03.549Z,2.97
2022-08-17T17:18:40.655Z,2.47
2022-08-17T17:21:12.917Z,2.73
2022-08-17T17:23:56.038Z,3.03
2022-08-17T17:26:29.159Z,2.80
2022-08-17T17:29:03.185Z,2.40
2022-08-17T17:31:38.239Z,2.60
2022-08-17T17:34:07.624Z,2.90
2022-08-17T17:36:41.305Z,2.30
2022-08-17T17:39:11.961Z,2.60
2022-08-17T17:42:03.116Z,2.40
2022-08-17T17:44:35.677Z,2.60
2022-08-17T17:47:04.124Z,2.60
2022-08-17T17:49:36.803Z,2.50
2022-08-17T17:52:23.207Z,2.30
2022-08-17T17:55:26.570Z,2.20
2022-08-17T17:58:14.557Z,2.80
2022-08-17T18:00:51.069Z,2.63
2022-08-17T18:03:37.484Z,2.27
2022-08-17T18:06:21.268Z,2.27
2022-08-17T18:08:49.280Z,2.30
2022-08-17T18:11:24.396Z,2.10
2022-08-17T18:13:58.820Z,2.33
2022-08-17T18:16:28.517Z,2.47
2022-08-17T18:19:02.466Z,2.57
2022-08-17T18:21:35.758Z,2.40
2022-08-17T18:24:04.814Z,2.60
2022-08-17T18:26:36.589Z,2.43
2022-08-17T18:29:15.596Z,2.43
2022-08-17T18:31:44.655Z,2.47
2022-08-17T18:37:16.022Z,2.00
2022-08-17T18:39:47.269Z,2.20
2022-08-17T18:42:30.028Z,2.20
2022-08-17T18:44:57.829Z,1.90
2022-08-17T18:47:29.043Z,2.07
2022-08-17T18:49:58.330Z,1.87
2022-08-17T18:52:30.423Z,1.87
2022-08-17T18:55:13.695Z,1.70
2022-08-17T18:57:44.961Z,2.13
2022-08-17T19:00:12.825Z,2.13
2022-08-17T19:02:51.734Z,2.03
2022-08-17T19:05:28.913Z,1.90
2022-08-17T19:08:14.674Z,1.63
2022-08-17T19:10:46.511Z,1.97
2022-08-17T19:13:24.410Z,2.07
2022-08-17T19:16:12.286Z,2.00
2022-08-17T19:18:48.808Z,2.17
2022-08-17T19:21:23.631Z,2.13
2022-08-17T19:24:03.561Z,2.30
2022-08-17T19:26:53.450Z,2.07
2022-08-17T19:29:27.529Z,2.27
2022-08-17T19:31:59.251Z,2.90
2022-08-17T19:34:33.849Z,1.90
2022-08-17T19:37:21.096Z,1.70
2022-08-17T19:39:48.686Z,2.10
2022-08-17T19:42:28.402Z,2.20
2022-08-17T19:45:03.124Z,2.27
2022-08-17T19:47:53.793Z,1.83
2022-08-17T19:50:25.393Z,2.13
2022-08-17T19:53:07.315Z,2.20
2022-08-17T19:55:34.622Z,2.03
2022-08-17T19:58:12.763Z,1.80
2022-08-17T20:00:50.092Z,2.30
2022-08-17T20:03:23.530Z,1.57
2022-08-17T20:08:49.890Z,1.80
2022-08-17T20:11:36.034Z,1.90
2022-08-17T20:14:10.721Z,1.97
2022-08-17T20:16:38.095Z,1.83
2022-08-17T20:19:28.339Z,1.77
2022-08-17T20:22:18.929Z,1.90
2022-08-17T20:24:54.512Z,1.63
2022-08-17T20:27:31.303Z,1.90
2022-08-17T20:29:59.319Z,1.57
2022-08-17T20:32:28.437Z,1.97
2022-08-17T20:35:03.826Z,2.23
2022-08-17T20:37:44.367Z,1.80
2022-08-17T20:40:14.368Z,1.60
2022-08-17T20:42:41.759Z,2.33
2022-08-17T20:45:21.471Z,2.10
2022-08-17T20:48:18.621Z,2.30
2022-08-17T20:50:43.437Z,1.70
2022-08-17T20:53:15.187Z,1.73
2022-08-17T20:55:52.288Z,1.93
2022-08-17T20:58:22.027Z,1.80
2022-08-17T21:00:59.039Z,1.80
2022-08-17T21:03:40.013Z,2.17
2022-08-17T21:06:18.323Z,1.80
2022-08-17T21:08:53.493Z,1.70
2022-08-17T21:12:01.509Z,1.97
2022-08-17T21:14:38.024Z,1.83
2022-08-17T21:17:24.004Z,1.60
2022-08-17T21:20:10.812Z,1.60
2022-08-17T21:22:40.449Z,1.87
2022-08-17T21:25:17.444Z,2.10
2022-08-17T21:27:53.614Z,2.07
2022-08-17T21:30:30.050Z,1.77
2022-08-17T21:33:20.808Z,1.80
2022-08-17T21:36:08.098Z,1.70
2022-08-17T21:38:47.725Z,1.70
2022-08-17T21:41:22.341Z,1.80
2022-08-17T21:43:53.196Z,1.67
2022-08-17T21:46:28.614Z,1.83
2022-08-17T21:48:59.226Z,1.90
2022-08-17T21:51:28.892Z,1.67
2022-08-17T21:54:01.206Z,1.53
2022-08-17T21:56:28.564Z,1.53
2022-08-17T21:58:58.761Z,1.80
2022-08-17T22:01:27.875Z,1.60
2022-08-17T22:03:59.765Z,1.57
2022-08-17T22:06:38.136Z,1.53
2022-08-17T22:09:12.364Z,1.57
2022-08-17T22:11:51.257Z,1.90
2022-08-17T22:14:21.378Z,1.80
2022-08-17T22:16:50.591Z,1.67
2022-08-17T22:19:18.450Z,1.90
2022-08-17T22:21:45.795Z,1.50
2022-08-17T22:24:21.391Z,1.83
2022-08-17T22:27:00.271Z,1.60
2022-08-17T22:29:46.308Z,2.00
2022-08-17T22:32:32.406Z,1.80
2022-08-17T22:35:18.251Z,1.53
2022-08-17T22:37:45.894Z,1.57
2022-08-17T22:40:24.929Z,2.07
2022-08-17T22:42:52.354Z,1.43
2022-08-17T22:45:19.799Z,1.60
2022-08-17T22:47:48.872Z,1.63
2022-08-17T22:50:26.833Z,1.40
2022-08-17T22:53:17.544Z,2.10
2022-08-17T22:56:14.584Z,1.60
2022-08-17T22:59:09.625Z,1.90
2022-08-17T23:01:37.036Z,1.80
2022-08-17T23:04:04.912Z,1.40
2022-08-17T23:06:36.391Z,2.00
2022-08-17T23:09:05.671Z,1.70
2022-08-17T23:11:49.476Z,1.50
2022-08-17T23:14:19.680Z,2.00
2022-08-17T23:16:48.631Z,1.70
2022-08-17T23:19:17.831Z,1.80
2022-08-17T23:21:45.767Z,1.93
2022-08-17T23:24:20.151Z,1.67
2022-08-17T23:26:47.545Z,1.70
2022-08-17T23:29:14.963Z,1.80
2022-08-17T23:31:42.444Z,1.70
2022-08-17T23:34:12.193Z,1.60
2022-08-17T23:36:39.717Z,1.30
2022-08-17T23:39:07.561Z,1.90
2022-08-17T23:41:38.600Z,1.50
2022-08-17T23:44:06.629Z,1.57
2022-08-17T23:46:34.620Z,1.30
2022-08-17T23:49:03.216Z,1.83
2022-08-17T23:51:36.484Z,1.70
2022-08-17T23:54:08.172Z,1.67
2022-08-17T23:56:44.386Z,1.83
2022-08-17T23:59:13.364Z,1.37
